createdAt,value
2023-03-22T22:05:47.753Z,963.1700
2023-03-22T22:05:47.753Z,1926.3600
2023-03-22T22:06:45.936Z,1138.3046
2023-03-22T22:07:50.044Z,2006.6267
2023-03-22T22:09:20.344Z,963.2076
2023-03-22T22:10:21.696Z,1825.0394
2023-03-22T22:11:23.216Z,2788.2605
2023-03-22T22:12:24.577Z,3751.4858
2023-03-22T22:13:25.924Z,4714.7109
2023-03-22T22:14:27.315Z,5677.9155
2023-03-22T22:15:28.704Z,6641.1182
2023-03-22T22:16:30.004Z,7604.3003
2023-03-22T22:17:33.324Z,8567.4658
2023-03-22T22:18:33.587Z,10006.5859
2023-03-22T22:19:35.019Z,10443.0635
2023-03-22T22:20:36.316Z,11406.2021
2023-03-22T22:21:37.669Z,12369.3506
2023-03-22T22:22:39.210Z,13332.5029
2023-03-22T22:23:40.556Z,14295.6631
2023-03-22T22:24:41.961Z,15258.8281
2023-03-22T22:25:43.350Z,16222.0039
2023-03-22T22:27:22.801Z,963.1812
2023-03-22T22:28:24.262Z,1824.9684
2023-03-22T22:30:54.921Z,963.1647
2023-03-22T22:31:56.345Z,1824.9321
2023-03-22T22:32:57.894Z,2788.0784
2023-03-22T22:34:54.989Z,5778.9038
2023-03-22T22:35:56.449Z,4308.8091
2023-03-22T22:38:20.256Z,963.1841
2023-03-22T22:39:21.678Z,1824.9984
2023-03-22T22:40:23.135Z,2788.2048
2023-03-22T22:41:24.623Z,3751.4143
2023-03-22T22:42:26.065Z,4714.6104
2023-03-22T22:43:27.648Z,5677.7993
2023-03-22T22:44:29.148Z,6640.9805
2023-03-22T22:45:30.750Z,7604.1509
2023-03-22T22:46:32.220Z,8567.3184
2023-03-22T22:47:33.656Z,9530.4795
2023-03-22T22:48:35.227Z,10493.6445
2023-03-22T22:49:37.163Z,11456.8184
2023-03-22T22:50:39.343Z,12419.9844
2023-03-22T22:51:41.254Z,13383.1436
2023-03-22T22:52:42.966Z,14346.3105
2023-03-22T22:53:44.927Z,15309.4814
2023-03-22T22:55:42.402Z,963.1714
2023-03-22T22:56:43.406Z,2000.4431
2023-03-22T22:57:44.675Z,2963.6362
2023-03-22T22:58:46.266Z,3926.8384
2023-03-22T22:59:46.876Z,4890.0376
